sensor_id;sensor_type;location;lat;lon;timestamp;pressure;altitude;pressure_sealevel;temperature;humidity
13934;BME280;7039;52.168;9.866;2022-12-11T00:01:08;100158.47;;;-0.31;93.70
13934;BME280;7039;52.168;9.866;2022-12-11T00:03:35;100152.56;;;-0.36;93.44
13934;BME280;7039;52.168;9.866;2022-12-11T00:06:04;100157.66;;;-0.34;93.78
13934;BME280;7039;52.168;9.866;2022-12-11T00:08:31;100150.84;;;-0.35;93.55
13934;BME280;7039;52.168;9.866;2022-12-11T00:10:59;100146.97;;;-0.76;94.02
13934;BME280;7039;52.168;9.866;2022-12-11T00:13:26;100138.72;;;-1.11;95.97
13934;BME280;7039;52.168;9.866;2022-12-11T00:15:53;100139.34;;;-0.79;96.11
13934;BME280;7039;52.168;9.866;2022-12-11T00:18:19;100145.16;;;-0.67;95.75
13934;BME280;7039;52.168;9.866;2022-12-11T00:20:46;100139.94;;;-0.57;95.39
13934;BME280;7039;52.168;9.866;2022-12-11T00:23:12;100142.53;;;-0.57;95.07
13934;BME280;7039;52.168;9.866;2022-12-11T00:25:40;100133.94;;;-0.55;94.83
13934;BME280;7039;52.168;9.866;2022-12-11T00:28:09;100134.00;;;-0.58;94.35
13934;BME280;7039;52.168;9.866;2022-12-11T00:30:38;100137.38;;;-0.56;94.75
13934;BME280;7039;52.168;9.866;2022-12-11T00:33:04;100141.59;;;-0.49;94.40
13934;BME280;7039;52.168;9.866;2022-12-11T00:35:31;100138.97;;;-0.44;94.21
13934;BME280;7039;52.168;9.866;2022-12-11T00:37:58;100136.41;;;-0.43;94.01
13934;BME280;7039;52.168;9.866;2022-12-11T00:40:24;100140.75;;;-0.49;94.18
13934;BME280;7039;52.168;9.866;2022-12-11T00:42:51;100133.91;;;-0.49;94.05
13934;BME280;7039;52.168;9.866;2022-12-11T00:45:19;100127.97;;;-0.55;94.37
13934;BME280;7039;52.168;9.866;2022-12-11T00:47:45;100137.38;;;-0.54;94.06
13934;BME280;7039;52.168;9.866;2022-12-11T00:50:12;100134.78;;;-0.51;94.03
13934;BME280;7039;52.168;9.866;2022-12-11T00:52:39;100133.06;;;-0.52;94.04
13934;BME280;7039;52.168;9.866;2022-12-11T00:55:06;100136.53;;;-0.56;93.61
13934;BME280;7039;52.168;9.866;2022-12-11T00:57:33;100134.00;;;-0.59;93.36
13934;BME280;7039;52.168;9.866;2022-12-11T00:59:59;100135.81;;;-0.69;93.52
13934;BME280;7039;52.168;9.866;2022-12-11T01:02:27;100136.59;;;-0.63;93.67
13934;BME280;7039;52.168;9.866;2022-12-11T01:04:54;100134.94;;;-0.67;93.54
13934;BME280;7039;52.168;9.866;2022-12-11T01:07:20;100136.59;;;-0.63;93.12
13934;BME280;7039;52.168;9.866;2022-12-11T01:09:47;100135.84;;;-0.72;92.28
13934;BME280;7039;52.168;9.866;2022-12-11T01:12:31;100137.56;;;-0.74;92.53
13934;BME280;7039;52.168;9.866;2022-12-11T01:14:57;100149.53;;;-0.75;92.66
13934;BME280;7039;52.168;9.866;2022-12-11T01:17:24;100149.53;;;-0.75;93.06
13934;BME280;7039;52.168;9.866;2022-12-11T01:19:53;100147.03;;;-0.81;93.68
13934;BME280;7039;52.168;9.866;2022-12-11T01:22:20;100151.28;;;-0.81;94.07
13934;BME280;7039;52.168;9.866;2022-12-11T01:24:47;100147.91;;;-0.85;94.39
13934;BME280;7039;52.168;9.866;2022-12-11T01:27:14;100149.69;;;-0.95;94.58
13934;BME280;7039;52.168;9.866;2022-12-11T01:29:41;100155.59;;;-0.85;94.52
13934;BME280;7039;52.168;9.866;2022-12-11T01:32:07;100147.00;;;-0.79;94.38
13934;BME280;7039;52.168;9.866;2022-12-11T01:34:34;100148.56;;;-0.63;94.55
13934;BME280;7039;52.168;9.866;2022-12-11T01:37:02;100153.59;;;-0.57;94.43
13934;BME280;7039;52.168;9.866;2022-12-11T01:39:28;100149.34;;;-0.56;94.57
13934;BME280;7039;52.168;9.866;2022-12-11T01:41:56;100149.38;;;-0.59;94.52
13934;BME280;7039;52.168;9.866;2022-12-11T01:47:26;100147.69;;;-0.59;94.21
13934;BME280;7039;52.168;9.866;2022-12-11T01:49:53;100149.34;;;-0.58;94.19
13934;BME280;7039;52.168;9.866;2022-12-11T01:52:21;100150.09;;;-0.45;93.94
13934;BME280;7039;52.168;9.866;2022-12-11T01:54:49;100154.34;;;-0.46;94.24
13934;BME280;7039;52.168;9.866;2022-12-11T01:57:16;100152.66;;;-0.48;93.68
13934;BME280;7039;52.168;9.866;2022-12-11T01:59:44;100155.97;;;-0.37;93.49
13934;BME280;7039;52.168;9.866;2022-12-11T02:02:16;100151.66;;;-0.32;93.14
13934;BME280;7039;52.168;9.866;2022-12-11T02:04:45;100149.97;;;-0.34;92.86
13934;BME280;7039;52.168;9.866;2022-12-11T02:07:11;100150.84;;;-0.35;92.74
13934;BME280;7039;52.168;9.866;2022-12-11T02:09:41;100149.16;;;-0.39;92.36
13934;BME280;7039;52.168;9.866;2022-12-11T02:12:13;100151.75;;;-0.41;92.48
13934;BME280;7039;52.168;9.866;2022-12-11T02:14:46;100151.72;;;-0.39;92.26
13934;BME280;7039;52.168;9.866;2022-12-11T02:17:22;100145.78;;;-0.42;92.37
13934;BME280;7039;52.168;9.866;2022-12-11T02:19:57;100152.50;;;-0.33;92.40
13934;BME280;7039;52.168;9.866;2022-12-11T02:22:43;100147.34;;;-0.30;92.55
13934;BME280;7039;52.168;9.866;2022-12-11T02:25:20;100148.31;;;-0.40;92.31
13934;BME280;7039;52.168;9.866;2022-12-11T02:27:53;100140.66;;;-0.40;92.27
13934;BME280;7039;52.168;9.866;2022-12-11T02:30:24;100151.78;;;-0.46;92.26
13934;BME280;7039;52.168;9.866;2022-12-11T02:32:53;100145.88;;;-0.51;92.61
13934;BME280;7039;52.168;9.866;2022-12-11T02:35:23;100142.47;;;-0.51;92.95
13934;BME280;7039;52.168;9.866;2022-12-11T02:37:55;100139.16;;;-0.64;93.20
13934;BME280;7039;52.168;9.866;2022-12-11T02:40:26;100136.16;;;-1.11;95.08
13934;BME280;7039;52.168;9.866;2022-12-11T02:42:54;100132.91;;;-1.34;93.22
13934;BME280;7039;52.168;9.866;2022-12-11T02:45:25;100142.97;;;-1.10;93.95
13934;BME280;7039;52.168;9.866;2022-12-11T02:47:54;100145.50;;;-1.02;94.24
13934;BME280;7039;52.168;9.866;2022-12-11T02:50:22;100137.66;;;-0.87;94.04
13934;BME280;7039;52.168;9.866;2022-12-11T02:52:51;100143.50;;;-0.71;93.86
13934;BME280;7039;52.168;9.866;2022-12-11T02:55:21;100134.25;;;-0.87;93.25
13934;BME280;7039;52.168;9.866;2022-12-11T02:57:51;100134.38;;;-1.02;94.34
13934;BME280;7039;52.168;9.866;2022-12-11T03:00:20;100127.47;;;-0.90;94.12
13934;BME280;7039;52.168;9.866;2022-12-11T03:02:48;100129.00;;;-0.73;93.79
13934;BME280;7039;52.168;9.866;2022-12-11T03:05:15;100128.16;;;-0.74;93.53
13934;BME280;7039;52.168;9.866;2022-12-11T03:07:43;100132.44;;;-0.76;93.91
13934;BME280;7039;52.168;9.866;2022-12-11T03:10:11;100131.63;;;-0.78;93.79
13934;BME280;7039;52.168;9.866;2022-12-11T03:12:42;100137.47;;;-0.64;93.67
13934;BME280;7039;52.168;9.866;2022-12-11T03:15:13;100132.34;;;-0.64;93.32
13934;BME280;7039;52.168;9.866;2022-12-11T03:17:46;100131.44;;;-0.58;93.33
13934;BME280;7039;52.168;9.866;2022-12-11T03:20:25;100133.94;;;-0.53;93.04
13934;BME280;7039;52.168;9.866;2022-12-11T03:23:03;100126.53;;;-0.79;93.66
13934;BME280;7039;52.168;9.866;2022-12-11T03:25:37;100134.97;;;-0.73;93.28
13934;BME280;7039;52.168;9.866;2022-12-11T03:28:10;100129.75;;;-0.62;93.47
13934;BME280;7039;52.168;9.866;2022-12-11T03:30:39;100128.81;;;-0.55;93.02
13934;BME280;7039;52.168;9.866;2022-12-11T03:33:10;100121.97;;;-0.53;93.15
13934;BME280;7039;52.168;9.866;2022-12-11T03:35:40;100120.25;;;-0.49;93.49
13934;BME280;7039;52.168;9.866;2022-12-11T03:38:10;100119.38;;;-0.47;93.24
13934;BME280;7039;52.168;9.866;2022-12-11T03:40:40;100119.31;;;-0.44;93.08
13934;BME280;7039;52.168;9.866;2022-12-11T03:43:10;100113.41;;;-0.49;92.41
13934;BME280;7039;52.168;9.866;2022-12-11T03:45:38;100115.09;;;-0.46;92.27
13934;BME280;7039;52.168;9.866;2022-12-11T03:48:05;100121.13;;;-0.52;92.14
13934;BME280;7039;52.168;9.866;2022-12-11T03:50:35;100127.09;;;-0.53;92.51
13934;BME280;7039;52.168;9.866;2022-12-11T03:53:04;100126.25;;;-0.55;92.80
13934;BME280;7039;52.168;9.866;2022-12-11T03:55:32;100126.34;;;-0.61;92.90
13934;BME280;7039;52.168;9.866;2022-12-11T03:58:01;100123.75;;;-0.58;92.38
13934;BME280;7039;52.168;9.866;2022-12-11T04:00:29;100118.09;;;-0.92;92.63
13934;BME280;7039;52.168;9.866;2022-12-11T04:03:05;100119.91;;;-1.05;93.75
13934;BME280;7039;52.168;9.866;2022-12-11T04:05:38;100123.22;;;-0.92;93.42
13934;BME280;7039;52.168;9.866;2022-12-11T04:08:06;100132.63;;;-0.96;94.06
13934;BME280;7039;52.168;9.866;2022-12-11T04:10:33;100134.22;;;-0.82;94.21
13934;BME280;7039;52.168;9.866;2022-12-11T04:12:59;100127.28;;;-0.71;93.96
13934;BME280;7039;52.168;9.866;2022-12-11T04:15:26;100128.91;;;-0.64;93.55
13934;BME280;7039;52.168;9.866;2022-12-11T04:17:51;100121.31;;;-0.73;93.09
13934;BME280;7039;52.168;9.866;2022-12-11T04:20:35;100118.00;;;-0.81;93.48
13934;BME280;7039;52.168;9.866;2022-12-11T04:23:21;100113.06;;;-1.01;93.34
13934;BME280;7039;52.168;9.866;2022-12-11T04:26:06;100119.94;;;-1.08;93.74
13934;BME280;7039;52.168;9.866;2022-12-11T04:28:33;100121.81;;;-1.29;95.17
13934;BME280;7039;52.168;9.866;2022-12-11T04:31:00;100127.63;;;-1.10;95.18
13934;BME280;7039;52.168;9.866;2022-12-11T04:33:27;100123.41;;;-1.17;95.75
13934;BME280;7039;52.168;9.866;2022-12-11T04:35:56;100125.03;;;-1.05;95.44
13934;BME280;7039;52.168;9.866;2022-12-11T04:38:24;100117.22;;;-0.91;95.33
13934;BME280;7039;52.168;9.866;2022-12-11T04:40:56;100128.16;;;-0.72;94.78
13934;BME280;7039;52.168;9.866;2022-12-11T04:43:23;100119.63;;;-0.73;94.39
13934;BME280;7039;52.168;9.866;2022-12-11T04:45:50;100128.97;;;-0.67;94.47
13934;BME280;7039;52.168;9.866;2022-12-11T04:48:16;100126.41;;;-0.67;94.22
13934;BME280;7039;52.168;9.866;2022-12-11T04:50:43;100123.00;;;-0.71;93.00
13934;BME280;7039;52.168;9.866;2022-12-11T04:53:10;100118.84;;;-0.79;93.46
13934;BME280;7039;52.168;9.866;2022-12-11T04:55:39;100123.84;;;-0.69;93.34
13934;BME280;7039;52.168;9.866;2022-12-11T04:58:06;100123.06;;;-0.74;93.39
13934;BME280;7039;52.168;9.866;2022-12-11T05:00:32;100121.38;;;-0.75;93.43
13934;BME280;7039;52.168;9.866;2022-12-11T05:02:59;100123.06;;;-0.74;93.43
13934;BME280;7039;52.168;9.866;2022-12-11T05:05:26;100128.06;;;-0.65;93.37
13934;BME280;7039;52.168;9.866;2022-12-11T05:07:53;100121.28;;;-0.66;93.13
13934;BME280;7039;52.168;9.866;2022-12-11T05:10:19;100117.00;;;-0.68;92.79
13934;BME280;7039;52.168;9.866;2022-12-11T05:12:47;100112.72;;;-0.63;92.70
13934;BME280;7039;52.168;9.866;2022-12-11T05:15:14;100110.22;;;-0.71;92.78
13934;BME280;7039;52.168;9.866;2022-12-11T05:17:41;100109.38;;;-0.71;92.76
13934;BME280;7039;52.168;9.866;2022-12-11T05:20:08;100108.44;;;-0.64;92.72
13934;BME280;7039;52.168;9.866;2022-12-11T05:22:36;100103.31;;;-0.64;92.62
13934;BME280;7039;52.168;9.866;2022-12-11T05:25:03;100091.44;;;-0.70;92.32
13934;BME280;7039;52.168;9.866;2022-12-11T05:27:30;100097.41;;;-0.71;92.50
13934;BME280;7039;52.168;9.866;2022-12-11T05:29:58;100097.34;;;-0.66;92.24
13934;BME280;7039;52.168;9.866;2022-12-11T05:32:25;100095.69;;;-0.69;92.10
13934;BME280;7039;52.168;9.866;2022-12-11T05:34:51;100101.63;;;-0.68;92.19
13934;BME280;7039;52.168;9.866;2022-12-11T05:37:18;100103.34;;;-0.67;91.93
13934;BME280;7039;52.168;9.866;2022-12-11T05:39:45;100096.53;;;-0.68;92.11
13934;BME280;7039;52.168;9.866;2022-12-11T05:42:11;100104.25;;;-0.71;91.42
13934;BME280;7039;52.168;9.866;2022-12-11T05:44:38;100106.75;;;-0.65;91.59
13934;BME280;7039;52.168;9.866;2022-12-11T05:47:06;100099.06;;;-0.64;91.17
13934;BME280;7039;52.168;9.866;2022-12-11T05:49:33;100111.03;;;-0.67;91.35
13934;BME280;7039;52.168;9.866;2022-12-11T05:51:59;100110.09;;;-0.61;91.20
13934;BME280;7039;52.168;9.866;2022-12-11T05:54:26;100114.44;;;-0.68;91.30
13934;BME280;7039;52.168;9.866;2022-12-11T05:56:52;100109.31;;;-0.65;91.44
13934;BME280;7039;52.168;9.866;2022-12-11T05:59:19;100106.75;;;-0.67;91.58
13934;BME280;7039;52.168;9.866;2022-12-11T06:01:46;100109.31;;;-0.65;91.29
13934;BME280;7039;52.168;9.866;2022-12-11T06:04:14;100107.63;;;-0.69;91.26
13934;BME280;7039;52.168;9.866;2022-12-11T06:06:40;100104.25;;;-0.71;90.99
13934;BME280;7039;52.168;9.866;2022-12-11T06:09:11;100098.22;;;-0.69;91.30
13934;BME280;7039;52.168;9.866;2022-12-11T06:11:39;100102.56;;;-0.72;90.97
13934;BME280;7039;52.168;9.866;2022-12-11T06:14:05;100100.88;;;-0.76;90.89
13934;BME280;7039;52.168;9.866;2022-12-11T06:16:32;100093.25;;;-0.81;90.91
13934;BME280;7039;52.168;9.866;2022-12-11T06:18:58;100086.41;;;-0.82;90.55
13934;BME280;7039;52.168;9.866;2022-12-11T06:21:28;100082.09;;;-0.75;90.80
13934;BME280;7039;52.168;9.866;2022-12-11T06:23:57;100084.72;;;-0.83;90.02
13934;BME280;7039;52.168;9.866;2022-12-11T06:26:25;100078.72;;;-0.82;90.39
13934;BME280;7039;52.168;9.866;2022-12-11T06:28:52;100079.63;;;-0.83;90.38
13934;BME280;7039;52.168;9.866;2022-12-11T06:31:20;100078.72;;;-0.80;90.08
13934;BME280;7039;52.168;9.866;2022-12-11T06:33:46;100075.41;;;-0.90;90.02
13934;BME280;7039;52.168;9.866;2022-12-11T06:36:15;100075.41;;;-0.90;90.37
13934;BME280;7039;52.168;9.866;2022-12-11T06:38:44;100079.69;;;-0.91;90.34
13934;BME280;7039;52.168;9.866;2022-12-11T06:41:10;100080.59;;;-0.96;90.42
13934;BME280;7039;52.168;9.866;2022-12-11T06:43:38;100082.25;;;-0.91;90.37
13934;BME280;7039;52.168;9.866;2022-12-11T06:46:07;100083.06;;;-0.86;90.29
13934;BME280;7039;52.168;9.866;2022-12-11T06:48:34;100072.88;;;-0.92;90.38
13934;BME280;7039;52.168;9.866;2022-12-11T06:51:04;100083.06;;;-0.86;90.11
13934;BME280;7039;52.168;9.866;2022-12-11T06:53:31;100083.91;;;-0.85;89.91
13934;BME280;7039;52.168;9.866;2022-12-11T06:56:02;100083.00;;;-0.81;90.24
13934;BME280;7039;52.168;9.866;2022-12-11T06:58:29;100089.00;;;-0.85;90.20
13934;BME280;7039;52.168;9.866;2022-12-11T07:00:56;100082.31;;;-0.97;89.64
13934;BME280;7039;52.168;9.866;2022-12-11T07:03:22;100091.63;;;-0.91;90.07
13934;BME280;7039;52.168;9.866;2022-12-11T07:05:49;100089.00;;;-0.83;89.96
13934;BME280;7039;52.168;9.866;2022-12-11T07:08:16;100090.66;;;-0.78;90.24
13934;BME280;7039;52.168;9.866;2022-12-11T07:10:42;100103.41;;;-0.72;90.11
13934;BME280;7039;52.168;9.866;2022-12-11T07:13:10;100100.00;;;-0.72;89.74
13934;BME280;7039;52.168;9.866;2022-12-11T07:15:37;100099.13;;;-0.70;90.01
13934;BME280;7039;52.168;9.866;2022-12-11T07:18:03;100102.59;;;-0.77;90.00
13934;BME280;7039;52.168;9.866;2022-12-11T07:20:30;100104.28;;;-0.76;89.84
13934;BME280;7039;52.168;9.866;2022-12-11T07:22:57;100101.78;;;-0.82;89.89
13934;BME280;7039;52.168;9.866;2022-12-11T07:25:23;100114.53;;;-0.77;90.34
13934;BME280;7039;52.168;9.866;2022-12-11T07:27:50;100111.97;;;-0.76;90.15
13934;BME280;7039;52.168;9.866;2022-12-11T07:30:18;100115.38;;;-0.74;90.30
13934;BME280;7039;52.168;9.866;2022-12-11T07:32:44;100106.00;;;-0.76;90.04
13934;BME280;7039;52.168;9.866;2022-12-11T07:35:11;100116.19;;;-0.70;90.11
13934;BME280;7039;52.168;9.866;2022-12-11T07:37:39;100121.38;;;-0.75;90.05
13934;BME280;7039;52.168;9.866;2022-12-11T07:40:07;100116.25;;;-0.75;90.09
13934;BME280;7039;52.168;9.866;2022-12-11T07:42:34;100125.66;;;-0.80;90.19
13934;BME280;7039;52.168;9.866;2022-12-11T07:45:00;100131.66;;;-0.82;89.68
13934;BME280;7039;52.168;9.866;2022-12-11T07:47:28;100124.78;;;-0.76;90.36
13934;BME280;7039;52.168;9.866;2022-12-11T07:49:55;100117.97;;;-0.77;90.10
13934;BME280;7039;52.168;9.866;2022-12-11T07:52:21;100117.94;;;-0.75;90.03
13934;BME280;7039;52.168;9.866;2022-12-11T07:54:48;100117.91;;;-0.72;89.85
13934;BME280;7039;52.168;9.866;2022-12-11T07:57:15;100120.44;;;-0.71;89.83
13934;BME280;7039;52.168;9.866;2022-12-11T07:59:41;100118.81;;;-0.78;89.91
13934;BME280;7039;52.168;9.866;2022-12-11T08:02:09;100125.56;;;-0.71;90.43
13934;BME280;7039;52.168;9.866;2022-12-11T08:04:37;100123.03;;;-0.72;90.26
13934;BME280;7039;52.168;9.866;2022-12-11T08:07:04;100116.28;;;-0.81;89.69
13934;BME280;7039;52.168;9.866;2022-12-11T08:09:30;100117.97;;;-0.78;90.00
13934;BME280;7039;52.168;9.866;2022-12-11T08:11:57;100116.25;;;-0.75;90.08
13934;BME280;7039;52.168;9.866;2022-12-11T08:14:23;100117.94;;;-0.75;89.90
13934;BME280;7039;52.168;9.866;2022-12-11T08:16:50;100120.44;;;-0.69;89.96
13934;BME280;7039;52.168;9.866;2022-12-11T08:19:16;100124.69;;;-0.65;89.75
13934;BME280;7039;52.168;9.866;2022-12-11T08:21:44;100123.78;;;-0.63;89.92
13934;BME280;7039;52.168;9.866;2022-12-11T08:24:11;100109.34;;;-0.70;89.16
13934;BME280;7039;52.168;9.866;2022-12-11T08:26:40;100123.00;;;-0.69;89.32
13934;BME280;7039;52.168;9.866;2022-12-11T08:29:07;100120.53;;;-0.77;89.61
13934;BME280;7039;52.168;9.866;2022-12-11T08:31:39;100127.28;;;-0.73;89.93
13934;BME280;7039;52.168;9.866;2022-12-11T08:34:06;100129.84;;;-0.70;89.52
13934;BME280;7039;52.168;9.866;2022-12-11T08:36:33;100124.69;;;-0.67;89.16
13934;BME280;7039;52.168;9.866;2022-12-11T08:39:01;100128.91;;;-0.63;88.72
13934;BME280;7039;52.168;9.866;2022-12-11T08:41:28;100127.19;;;-0.62;88.49
13934;BME280;7039;52.168;9.866;2022-12-11T08:43:55;100129.75;;;-0.62;88.37
13934;BME280;7039;52.168;9.866;2022-12-11T08:46:24;100134.00;;;-0.56;88.40
13934;BME280;7039;52.168;9.866;2022-12-11T08:48:52;100126.34;;;-0.61;88.34
13934;BME280;7039;52.168;9.866;2022-12-11T08:51:22;100121.28;;;-0.66;88.19
13934;BME280;7039;52.168;9.866;2022-12-11T08:53:49;100128.03;;;-0.60;88.13
13934;BME280;7039;52.168;9.866;2022-12-11T08:56:19;100127.94;;;-0.51;88.40
13934;BME280;7039;52.168;9.866;2022-12-11T08:58:46;100122.00;;;-0.54;88.73
13934;BME280;7039;52.168;9.866;2022-12-11T09:01:14;100122.84;;;-0.54;88.56
13934;BME280;7039;52.168;9.866;2022-12-11T09:03:42;100123.59;;;-0.46;88.26
13934;BME280;7039;52.168;9.866;2022-12-11T09:06:10;100125.47;;;-0.58;87.50
13934;BME280;7039;52.168;9.866;2022-12-11T09:08:38;100121.19;;;-0.58;88.29
13934;BME280;7039;52.168;9.866;2022-12-11T09:11:06;100125.44;;;-0.57;88.75
13934;BME280;7039;52.168;9.866;2022-12-11T09:13:35;100128.75;;;-0.47;88.41
13934;BME280;7039;52.168;9.866;2022-12-11T09:16:03;100124.44;;;-0.40;87.77
13934;BME280;7039;52.168;9.866;2022-12-11T09:18:30;100118.53;;;-0.49;87.73
13934;BME280;7039;52.168;9.866;2022-12-11T09:20:58;100130.50;;;-0.48;87.55
13934;BME280;7039;52.168;9.866;2022-12-11T09:23:25;100120.25;;;-0.49;87.77
13934;BME280;7039;52.168;9.866;2022-12-11T09:25:51;100115.97;;;-0.47;87.60
13934;BME280;7039;52.168;9.866;2022-12-11T09:28:18;100124.44;;;-0.40;87.57
13934;BME280;7039;52.168;9.866;2022-12-11T09:30:46;100120.94;;;-0.35;87.39
13934;BME280;7039;52.168;9.866;2022-12-11T09:33:13;100120.09;;;-0.37;87.49
13934;BME280;7039;52.168;9.866;2022-12-11T09:35:39;100112.31;;;-0.28;87.31
13934;BME280;7039;52.168;9.866;2022-12-11T09:38:06;100116.63;;;-0.31;87.09
13934;BME280;7039;52.168;9.866;2022-12-11T09:40:39;100119.03;;;-0.19;87.04
13934;BME280;7039;52.168;9.866;2022-12-11T09:43:29;100113.88;;;-0.14;86.32
13934;BME280;7039;52.168;9.866;2022-12-11T10:00:34;100107.00;;;-0.14;86.08
13934;BME280;7039;52.168;9.866;2022-12-11T10:03:22;100101.88;;;-0.14;86.03
13934;BME280;7039;52.168;9.866;2022-12-11T10:23:34;100090.47;;;0.12;84.86
13934;BME280;7039;52.168;9.866;2022-12-11T10:51:53;100077.31;;;0.35;83.44
13934;BME280;7039;52.168;9.866;2022-12-11T12:03:26;100051.56;;;-0.19;85.14
13934;BME280;7039;52.168;9.866;2022-12-11T12:07:23;100037.94;;;-0.23;83.37
13934;BME280;7039;52.168;9.866;2022-12-11T12:54:17;100014.25;;;0.22;78.37
13934;BME280;7039;52.168;9.866;2022-12-11T15:42:28;100051.84;;;-2.68;90.17
13934;BME280;7039;52.168;9.866;2022-12-11T15:45:05;100050.97;;;-2.67;90.64
13934;BME280;7039;52.168;9.866;2022-12-11T15:47:32;100039.06;;;-2.71;91.01
13934;BME280;7039;52.168;9.866;2022-12-11T15:50:00;100044.16;;;-2.73;91.03
13934;BME280;7039;52.168;9.866;2022-12-11T15:52:27;100037.38;;;-2.77;91.38
13934;BME280;7039;52.168;9.866;2022-12-11T15:54:54;100039.97;;;-2.86;91.45
13934;BME280;7039;52.168;9.866;2022-12-11T15:57:24;100050.16;;;-2.81;91.18
13934;BME280;7039;52.168;9.866;2022-12-11T15:59:52;100050.19;;;-2.90;91.46
13934;BME280;7039;52.168;9.866;2022-12-11T16:02:19;100040.84;;;-3.05;91.98
13934;BME280;7039;52.168;9.866;2022-12-11T16:04:46;100052.75;;;-2.95;92.32
13934;BME280;7039;52.168;9.866;2022-12-11T16:07:15;100048.47;;;-2.85;92.19
13934;BME280;7039;52.168;9.866;2022-12-11T16:09:42;100042.53;;;-2.97;92.26
13934;BME280;7039;52.168;9.866;2022-12-11T16:12:09;100042.53;;;-3.01;92.63
13934;BME280;7039;52.168;9.866;2022-12-11T16:14:39;100044.22;;;-2.92;92.72
13934;BME280;7039;52.168;9.866;2022-12-11T16:17:06;100043.34;;;-2.93;92.56
13934;BME280;7039;52.168;9.866;2022-12-11T16:19:34;100039.13;;;-3.00;92.29
13934;BME280;7039;52.168;9.866;2022-12-11T16:22:00;100044.22;;;-3.05;92.57
13934;BME280;7039;52.168;9.866;2022-12-11T16:24:27;100041.69;;;-3.02;92.49
13934;BME280;7039;52.168;9.866;2022-12-11T16:26:54;100034.88;;;-3.09;92.50
13934;BME280;7039;52.168;9.866;2022-12-11T16:29:21;100041.69;;;-3.09;92.71
13934;BME280;7039;52.168;9.866;2022-12-11T16:31:49;100034.88;;;-3.13;92.61
13934;BME280;7039;52.168;9.866;2022-12-11T16:34:16;100031.50;;;-3.17;92.82
13934;BME280;7039;52.168;9.866;2022-12-11T16:36:43;100033.22;;;-3.19;92.79
13934;BME280;7039;52.168;9.866;2022-12-11T16:39:10;100040.84;;;-3.21;93.04
13934;BME280;7039;52.168;9.866;2022-12-11T16:41:37;100036.63;;;-3.31;92.92
13934;BME280;7039;52.168;9.866;2022-12-11T16:44:04;100041.72;;;-3.32;92.82
13934;BME280;7039;52.168;9.866;2022-12-11T16:46:31;100038.31;;;-3.44;92.40
13934;BME280;7039;52.168;9.866;2022-12-11T16:48:59;100040.88;;;-3.39;92.67
13934;BME280;7039;52.168;9.866;2022-12-11T16:51:26;100036.63;;;-3.48;92.67
13934;BME280;7039;52.168;9.866;2022-12-11T16:53:53;100041.72;;;-3.43;93.12
13934;BME280;7039;52.168;9.866;2022-12-11T16:56:19;100034.91;;;-3.41;93.20
13934;BME280;7039;52.168;9.866;2022-12-11T16:58:46;100045.13;;;-3.37;92.74
13934;BME280;7039;52.168;9.866;2022-12-11T17:01:14;100045.97;;;-3.38;92.53
13934;BME280;7039;52.168;9.866;2022-12-11T17:03:42;100039.19;;;-3.55;92.52
13934;BME280;7039;52.168;9.866;2022-12-11T17:06:13;100042.56;;;-3.50;92.87
13934;BME280;7039;52.168;9.866;2022-12-11T17:08:40;100040.84;;;-3.54;92.88
13934;BME280;7039;52.168;9.866;2022-12-11T17:11:22;100043.41;;;-3.53;93.27
13934;BME280;7039;52.168;9.866;2022-12-11T17:13:52;100045.13;;;-3.49;93.33
13934;BME280;7039;52.168;9.866;2022-12-11T17:16:19;100045.97;;;-3.56;93.01
13934;BME280;7039;52.168;9.866;2022-12-11T17:18:46;100048.53;;;-3.51;92.65
13934;BME280;7039;52.168;9.866;2022-12-11T17:21:16;100045.97;;;-3.45;92.79
13934;BME280;7039;52.168;9.866;2022-12-11T17:23:44;100050.22;;;-3.46;92.40
13934;BME280;7039;52.168;9.866;2022-12-11T17:26:11;100048.53;;;-3.51;92.33
13934;BME280;7039;52.168;9.866;2022-12-11T17:28:38;100044.28;;;-3.59;92.15
13934;BME280;7039;52.168;9.866;2022-12-11T17:31:07;100042.56;;;-3.61;92.57
13934;BME280;7039;52.168;9.866;2022-12-11T17:33:48;100041.72;;;-3.63;92.05
13934;BME280;7039;52.168;9.866;2022-12-11T17:36:18;100059.56;;;-3.66;91.79
13934;BME280;7039;52.168;9.866;2022-12-11T17:38:45;100049.38;;;-3.68;92.40
13934;BME280;7039;52.168;9.866;2022-12-11T17:41:15;100041.72;;;-3.63;92.97
13934;BME280;7039;52.168;9.866;2022-12-11T17:43:42;100050.22;;;-3.60;92.96
13934;BME280;7039;52.168;9.866;2022-12-11T17:46:10;100048.53;;;-3.58;92.90
13934;BME280;7039;52.168;9.866;2022-12-11T17:48:37;100043.41;;;-3.67;93.11
13934;BME280;7039;52.168;9.866;2022-12-11T17:51:06;100049.34;;;-3.62;93.07
13934;BME280;7039;52.168;9.866;2022-12-11T17:53:34;100045.97;;;-3.54;93.00
13934;BME280;7039;52.168;9.866;2022-12-11T17:56:02;100048.53;;;-3.53;92.54
13934;BME280;7039;52.168;9.866;2022-12-11T17:58:30;100050.22;;;-3.55;92.62
13934;BME280;7039;52.168;9.866;2022-12-11T18:00:58;100058.72;;;-3.48;93.02
13934;BME280;7039;52.168;9.866;2022-12-11T18:03:27;100060.41;;;-3.41;92.89
13934;BME280;7039;52.168;9.866;2022-12-11T18:05:55;100059.56;;;-3.31;93.22
13934;BME280;7039;52.168;9.866;2022-12-11T18:08:24;100064.66;;;-3.25;92.82
13934;BME280;7039;52.168;9.866;2022-12-11T18:10:53;100068.06;;;-3.18;92.52
13934;BME280;7039;52.168;9.866;2022-12-11T18:13:20;100074.00;;;-3.11;92.51
13934;BME280;7039;52.168;9.866;2022-12-11T18:15:58;100070.59;;;-2.98;92.09
13934;BME280;7039;52.168;9.866;2022-12-11T18:18:25;100070.59;;;-3.07;91.88
13934;BME280;7039;52.168;9.866;2022-12-11T18:20:52;100065.53;;;-3.15;91.59
13934;BME280;7039;52.168;9.866;2022-12-11T18:23:19;100065.50;;;-3.13;91.27
13934;BME280;7039;52.168;9.866;2022-12-11T18:25:45;100060.41;;;-3.17;91.05
13934;BME280;7039;52.168;9.866;2022-12-11T18:28:14;100066.38;;;-3.18;91.37
13934;BME280;7039;52.168;9.866;2022-12-11T18:30:44;100062.13;;;-3.23;91.58
13934;BME280;7039;52.168;9.866;2022-12-11T18:33:10;100059.56;;;-3.39;92.06
13934;BME280;7039;52.168;9.866;2022-12-11T18:35:42;100062.13;;;-3.28;91.41
13934;BME280;7039;52.168;9.866;2022-12-11T18:38:09;100066.38;;;-3.27;91.47
13934;BME280;7039;52.168;9.866;2022-12-11T18:40:38;100063.81;;;-3.30;91.53
13934;BME280;7039;52.168;9.866;2022-12-11T18:43:06;100052.75;;;-3.41;91.97
13934;BME280;7039;52.168;9.866;2022-12-11T18:45:34;100066.38;;;-3.22;92.31
13934;BME280;7039;52.168;9.866;2022-12-11T18:48:00;100066.38;;;-3.15;92.69